Flight Track Log - Related Links

Times and Time Zones

All times are in EDT time to prevent confusion due to time zone crossing. See the SWA2336 flight status page for this flight to view local times or setup timezone preferences in your user account.

Time Position Orientation Groundspeed Altitude Reporting Facility
EDT Latitude Longitude Course Direction KTS MPH feet Rate Location/Type
Sat 10:36:37 AM 28.0667 -82.5333 360° North 210 242 3,600  Level Tampa TRACON
Sat 10:37:52 AM 28.1475 -82.5558 346° North 255 293 6,500 2,978 Climbing Jacksonville Center
Sat 10:38:52 AM 28.2183 -82.5981 332° Northwest 260 299 10,300 2,900 Climbing Jacksonville Center
Sat 10:39:52 AM 28.3000 -82.6475 332° Northwest 294 338 12,300 2,550 Climbing Jacksonville Center
Sat 10:40:52 AM 28.3919 -82.7014 333° Northwest 341 392 15,400 3,050 Climbing Jacksonville Center
Sat 10:41:52 AM 28.4836 -82.7581 331° Northwest 363 418 18,400 2,850 Climbing Jacksonville Center
Sat 10:42:52 AM 28.5797 -82.8144 333° Northwest 378 435 21,100 2,300 Climbing Jacksonville Center
Sat 10:43:52 AM 28.6717 -82.8358 348° North 386 444 23,000 2,200 Climbing Jacksonville Center
Sat 10:44:52 AM 28.8094 -82.8667 349° North 407 468 25,500 2,250 Climbing Jacksonville Center
Sat 10:45:52 AM 28.9264 -82.8925 349° North 419 482 27,500 1,850 Climbing Jacksonville Center
Sat 10:46:52 AM 29.0494 -82.9211 349° North 433 498 29,200 1,800 Climbing Jacksonville Center
Sat 10:47:52 AM 29.1725 -82.9497 349° North 440 506 31,100 2,050 Climbing Jacksonville Center
Sat 10:48:52 AM 29.2936 -82.9783 348° North 446 513 33,300 1,450 Climbing Jacksonville Center
Sat 10:49:52 AM 29.4125 -83.0069 348° North 446 513 34,000 350 Climbing Jacksonville Center
Sat 10:50:52 AM 29.5317 -83.0358 348° North 439 505 34,000 500 Level Jacksonville Center
Sat 10:51:52 AM 29.6464 -83.0742 344° North 439 505 35,000 1,400 Climbing Jacksonville Center
Sat 10:52:52 AM 29.7547 -83.1247 338° Northwest 429 494 36,800 1,500 Climbing Jacksonville Center
Sat 10:53:52 AM 29.8592 -83.1728 338° Northwest 417 480 38,000 600 Climbing Jacksonville Center
Sat 10:54:52 AM 29.9656 -83.2211 339° North 404 465 38,000  Level Jacksonville Center
Sat 10:55:52 AM 30.0614 -83.2644 339° North 404 465 38,000  Level Jacksonville Center
Sat 10:56:52 AM 30.1656 -83.3131 338° Northwest 409 471 38,000  Level Jacksonville Center
Sat 10:57:52 AM 30.2719 -83.3639 338° Northwest 409 471 38,000  Level Jacksonville Center
Sat 10:58:52 AM 30.3783 -83.4128 338° Northwest 409 471 38,000  Level Jacksonville Center
Sat 10:59:52 AM 30.4844 -83.4592 339° North 409 471 38,000  Level Jacksonville Center
Sat 11:00:52 AM 30.5867 -83.5081 338° Northwest 409 471 38,000  Level Jacksonville Center
Sat 11:01:52 AM 30.6928 -83.5594 337° Northwest 409 471 38,000  Level Jacksonville Center
Sat 11:02:52 AM 30.8053 -83.6158 337° Northwest 395 455 38,000  Level Jacksonville Center
Sat 11:03:52 AM 30.9072 -83.6625 339° North 395 455 38,000  Level Jacksonville Center
Sat 11:04:52 AM 31.0114 -83.7119 338° Northwest 395 455 38,000  Level Jacksonville Center
Sat 11:05:52 AM 31.1156 -83.7636 337° Northwest 395 455 38,000  Level Jacksonville Center
Sat 11:06:52 AM 31.2217 -83.8133 338° Northwest 395 455 38,000  Level Jacksonville Center
Sat 11:07:52 AM 31.3256 -83.8653 337° Northwest 400 460 38,000  Level Jacksonville Center
Sat 11:10:05 AM 31.5525 -83.9706 338° Northwest 413 475 38,000  Level Atlanta Center
Sat 11:11:05 AM 31.6694 -83.9975 349° North 413 475 38,000  Level Atlanta Center
Sat 11:12:05 AM 31.7864 -84.0217 350° North 413 475 38,000  Level Atlanta Center
Sat 11:13:05 AM 31.8989 -84.0436 351° North 413 475 38,000  Level Atlanta Center
Sat 11:14:05 AM 32.0139 -84.0683 350° North 413 475 38,000  Level Atlanta Center
Sat 11:15:05 AM 32.1264 -84.0928 350° North 413 475 38,000  Level Atlanta Center
Sat 11:16:05 AM 32.2392 -84.1200 348° North 413 475 38,000  Level Atlanta Center
Sat 11:17:05 AM 32.3497 -84.1444 349° North 413 475 38,000  Level Atlanta Center
Sat 11:18:05 AM 32.4625 -84.1692 350° North 413 475 38,000  Level Atlanta Center
Sat 11:19:05 AM 32.5772 -84.1967 349° North 413 475 38,000  Level Atlanta Center
Sat 11:20:05 AM 32.6900 -84.2214 350° North 413 475 38,000  Level Atlanta Center
Sat 11:21:05 AM 32.8108 -84.2489 349° North 413 475 38,000  Level Atlanta Center
Sat 11:22:05 AM 32.9278 -84.2764 349° North 413 475 38,000  Level Atlanta Center
Sat 11:23:05 AM 33.0425 -84.3014 350° North 413 475 38,000  Level Atlanta Center
Sat 11:24:05 AM 33.1614 -84.3192 353° North 425 489 38,000  Level Atlanta Center
Sat 11:25:05 AM 33.2806 -84.3197 360° North 425 489 38,000  Level Atlanta Center
Sat 11:26:05 AM 33.4036 -84.3225 359° North 425 489 38,000  Level Atlanta Center
Sat 11:27:05 AM 33.5100 -84.3253 359° North 425 489 38,000  Level Atlanta Center
Sat 11:28:05 AM 33.6228 -84.3283 359° North 420 483 38,000  Level Atlanta Center
Sat 11:29:05 AM 33.7375 -84.3561 349° North 420 483 38,000  Level Atlanta Center
Sat 11:30:05 AM 33.8481 -84.3864 347° North 414 476 38,000  Level Atlanta Center
Sat 11:31:05 AM 33.9669 -84.4169 348° North 419 482 38,000  Level Atlanta Center
Sat 11:32:05 AM 34.0775 -84.4475 347° North 414 476 38,000  Level Atlanta Center
Sat 11:33:05 AM 34.2131 -84.4808 349° North 438 504 38,000  Level Atlanta Center
Sat 11:34:05 AM 34.3153 -84.5067 348° North 424 488 38,000  Level Atlanta Center
Sat 11:35:05 AM 34.4319 -84.5400 347° North 424 488 38,000  Level Atlanta Center
Sat 11:36:05 AM 34.5467 -84.5708 348° North 419 482 38,000  Level Atlanta Center
Sat 11:37:05 AM 34.6592 -84.5994 348° North 419 482 38,000  Level Atlanta Center
Sat 11:38:05 AM 34.7694 -84.6331 346° North 413 475 38,000  Level Atlanta Center
Sat 11:39:05 AM 34.8842 -84.6642 347° North 413 475 38,000  Level Atlanta Center
Sat 11:40:05 AM 34.9967 -84.6956 347° North 413 475 38,000  Level Atlanta Center
Sat 11:41:05 AM 35.1133 -84.7269 348° North 413 475 38,000  Level Atlanta Center
Sat 11:42:05 AM 35.2281 -84.7583 347° North 413 475 38,000  Level Atlanta Center
Sat 11:43:05 AM 35.3383 -84.7872 348° North 413 475 38,000  Level Atlanta Center
Sat 11:44:05 AM 35.4467 -84.8189 347° North 408 470 38,000  Level Atlanta Center
Sat 11:45:05 AM 35.5653 -84.8506 348° North 408 470 38,000  Level Atlanta Center
Sat 11:46:05 AM 35.6758 -84.8825 347° North 403 464 38,000  Level Atlanta Center
Sat 11:48:18 AM 35.9158 -84.9478 348° North 414 476 38,000  Level Indianapolis Center
Sat 11:49:20 AM 36.0403 -84.9819 347° North 415 478 38,000  Level Indianapolis Center
Sat 11:50:21 AM 36.1539 -85.0142 347° North 417 480 38,000  Level Indianapolis Center
Sat 11:51:22 AM 36.2678 -85.0461 347° North 418 481 38,000  Level Indianapolis Center
Sat 11:52:24 AM 36.3842 -85.0789 347° North 424 488 38,000 -293 Level Indianapolis Center
Sat 11:53:25 AM 36.5008 -85.1119 347° North 427 491 37,400 -738 Descending Indianapolis Center
Sat 11:54:26 AM 36.6186 -85.1456 347° North 432 497 36,500 -927 Descending Indianapolis Center
Sat 11:55:28 AM 36.7378 -85.1794 347° North 437 503 35,500 -927 Descending Indianapolis Center
Sat 11:56:29 AM 36.8572 -85.2136 347° North 439 505 34,600 -984 Descending Indianapolis Center
Sat 11:57:30 AM 36.9761 -85.2469 347° North 438 504 33,500 -1,073 Descending Indianapolis Center
Sat 11:58:32 AM 37.1050 -85.2861 346° North 433 498 32,400 -732 Descending Indianapolis Center
Sat 11:59:33 AM 37.2228 -85.3189 348° North 431 496 32,000 -197 Descending Indianapolis Center
Sat 12:00:34 PM 37.3381 -85.3528 347° North 427 491 32,000  Level Indianapolis Center
Sat 12:01:36 PM 37.4531 -85.3872 347° North 423 487 32,000  Level Indianapolis Center
Sat 12:02:37 PM 37.5872 -85.4264 347° North 420 483 32,000  Level Indianapolis Center
Sat 12:03:38 PM 37.7019 -85.4603 347° North 422 486 32,000  Level Indianapolis Center
Sat 12:04:39 PM 37.8167 -85.4939 347° North 423 487 32,000 -620 Level Indianapolis Center
Sat 12:06:42 PM 38.0439 -85.5597 347° North 424 488 30,100 -978 Descending Indianapolis Center
Sat 12:07:43 PM 38.1572 -85.5839 350° North 415 478 29,000 -1,024 Descending Indianapolis Center
Sat 12:08:45 PM 38.2722 -85.5967 355° North 414 476 28,000 -976 Descending Indianapolis Center
Sat 12:09:46 PM 38.3836 -85.6106 354° North 404 465 27,000 -1,377 Descending Indianapolis Center
Sat 12:10:47 PM 38.4931 -85.6242 354° North 395 455 25,200 -2,361 Descending Indianapolis Center
Sat 12:11:48 PM 38.6253 -85.6414 354° North 398 458 22,200 -2,341 Descending Indianapolis Center
Sat 12:12:50 PM 38.7247 -85.6586 352° North 380 437 20,400 -1,659 Descending Indianapolis Center
Sat 12:13:51 PM 38.8242 -85.6781 351° North 363 418 18,800 -1,525 Descending Indianapolis Center
Sat 12:14:52 PM 38.9183 -85.6942 352° North 344 396 17,300 -1,561 Descending Indianapolis Center
Sat 12:15:54 PM 39.0111 -85.7114 352° North 336 387 15,600 -1,610 Descending Indianapolis Center
Sat 12:16:55 PM 39.1031 -85.7281 352° North 332 382 14,000 -787 Descending Indianapolis Center
Sat 12:17:56 PM 39.1964 -85.7447 352° North 335 386 14,000 -98 Level Indianapolis Center
Sat 12:18:57 PM 39.2903 -85.7622 352° North 340 391 13,800 -585 Descending Indianapolis Center
Sat 12:19:59 PM 39.3664 -85.8306 325° Northwest 334 384 12,800 -1,317 Descending Indianapolis Center
Sat 12:21:00 PM 39.4447 -85.9244 317° Northwest 329 379 11,100 -1,475 Descending Indianapolis Center
Sat 12:22:01 PM 39.5108 -86.0025 318° Northwest 322 371 9,800 -1,366 Descending Indianapolis Center
Sat 12:23:03 PM 39.5708 -86.0744 317° Northwest 304 350 8,300 -1,487 Descending Indianapolis Center
Sat 12:23:54 PM 39.6333 -86.1333 324° Northwest 288 331 7,000 -1,351 Descending Indianapolis TRACON
Sat 12:24:54 PM 39.6500 -86.2333 282° West 288 331 5,800 -1,263 Descending Indianapolis TRACON
Sat 12:25:48 PM 39.6167 -86.3000 237° Southwest 261 300 4,600 -1,417 Descending Indianapolis TRACON
Sat 12:26:06 PM 39.5936 -86.3242 219° Southwest 272 313 4,100 -525 Descending Indianapolis Center
Sat 12:27:08 PM 39.6103 -86.3989 286° West 246 283 3,900 -683 Descending Indianapolis Center
Sat 12:28:09 PM 39.6497 -86.3947 North 185 213 2,700 -1,245 Descending Indianapolis Center
Sat 12:28:54 PM 39.6667 -86.3667 52° Northeast 140 161 1,700 -971 Descending Indianapolis TRACON
Sat 12:29:54 PM 39.7000 -86.3333 38° Northeast 142 163 1,000 -700 Descending Indianapolis TRACON

Login

Don't have an account? Register now (free) for customized features, flight alerts, and more!